CheckWX is a tool to help pilots better visualize weather data.  It is not intended as a substitute for an official pre-flight weather briefing.

19:34:13 UTC

KDPA TAF
Dupage Airport
Chicago/West Chicago, Illinois, USA
KDPA 191737Z 1918/2018 23012G19KT P6SM SCT030 BKN250 TEMPO 1918/1920 BKN030 FM200100 22010KT P6SM BKN250 TEMPO 2009/2012 5SM BR FM201400 24012G18KT P6SM SCT040 BKN250

Jul-19@
18:00 UTC

Jul-19 @ 18:00 UTC

Jul-20@
01:00 UTC

Jul-20 @ 01:00 UTC

KDPA 191737Z 1918/2018 23012G19KT P6SM SCT030 BKN250
Wind
  • 230° at 12 KTS
  • {Gusting to 19 KTS
Cloud Levels
  • Scattered at 3,000' AGL
  • Broken at 25,000' AGL

Jul-19@
18:00 UTC

Jul-19 @ 18:00 UTC

Jul-19@
20:00 UTC

Jul-19 @ 20:00 UTC

TEMPO 1918/1920 BKN030

Temporary

Temporary Changes expected for less than half the time period

Cloud Levels
  • Broken at 3,000' AGL

Jul-20@
01:00 UTC

Jul-20 @ 01:00 UTC

Jul-20@
14:00 UTC

Jul-20 @ 14:00 UTC

FM200100 22010KT P6SM BKN250

From

From Standard forecast or significant change

Wind
  • 220° at 10 KTS
Cloud Levels
  • Broken at 25,000' AGL

Jul-20@
09:00 UTC

Jul-20 @ 09:00 UTC

Jul-20@
12:00 UTC

Jul-20 @ 12:00 UTC

TEMPO 2009/2012 5SM BR

Temporary

Temporary Changes expected for less than half the time period

Conditions
Mist

Jul-20@
14:00 UTC

Jul-20 @ 14:00 UTC

Jul-20@
18:00 UTC

Jul-20 @ 18:00 UTC

FM201400 24012G18KT P6SM SCT040 BKN250

From

From Standard forecast or significant change

Wind
  • 240° at 12 KTS
  • {Gusting to 18 KTS
Cloud Levels
  • Scattered at 4,000' AGL
  • Broken at 25,000' AGL